Logo AVAMET
Benvolgut visitant, si us plau, ingressa Recuperar contrasenya
AVAMET paisatges

Redovà

Dades diàries. Acumulats / Últims 30 dies disponibles

Data Temperatura (°C) Humitat rel. (%) Pressió rel. (hPa) Vent (km/h) Precipitació
Mínima Mitjana Màxima Amplitud
tèrmica
Mínima Mitjana Màxima Mínima Mitjana Màxima Predom. Mitjana Ràfega
màxima
Total
(mm)
Índex-n
Mínima Mitjana Màxima Mínima Mitjana Màxima n
0 a 1
P0 max
mm 5'
Dades mensuals acumulades fins l'últim dia disponible
08/2020 21,5 23,7 25,9 28,5 32,0 34,1 38,2 16,7 27 68 88 1.013 1.016 1.021   3,5 30,6 0,0
Dades anuals acumulades fins l'últim dia disponible
2020 2,6 14,7 25,9 19,4 10,3 24,9 40,1 37,5 23 68 96 1.004 1.020 1.037   3,2 56,3 270,4
Últims 30 dies disponibles
09-08-2020 22,6     28,8     35,7 13,1 31 58 81 1.014 1.017 1.019 S 3,3 22,5 0,0
08-08-2020 21,5     28,0     34,8 13,3 27 61 84 1.018 1.020 1.021 SSE 2,9 22,5 0,0
07-08-2020 21,8     27,9     34,2 12,4 31 60 81 1.019 1.020 1.021 E 2,8 20,9 0,0
06-08-2020 23,8     27,9     32,2 8,4 47 67 86 1.016 1.017 1.019 ESE 4,0 22,5 0,0
05-08-2020 23,5     27,6     32,2 8,7 54 72 87 1.014 1.015 1.016 ENE 3,5 22,5 0,0
04-08-2020 25,9     28,0     32,0 6,1 58 74 84 1.014 1.015 1.016 E 4,6 25,7 0,0
03-08-2020 25,4     28,2     33,2 7,8 60 77 88 1.013 1.013 1.015 E 4,2 30,6 0,0
02-08-2020 24,1     29,2     34,0 9,9 57 72 86 1.013 1.014 1.016 E 3,8 25,7 0,0
01-08-2020 25,1     30,6     38,2 13,1 46 68 84 1.013 1.016 1.018 SE 2,1 25,7 0,0
31-07-2020 24,4     29,9     36,7 12,3 39 62 80 1.015 1.016 1.017 SE 3,1 20,9 0,0
30-07-2020 24,3     27,2     35,1 10,8 57 72 85 1.015 1.016 1.017 S 3,2 27,4 0,0
29-07-2020 24,2     29,2     35,3 11,1 41 70 89 1.014 1.015 1.017 ESE 4,2 29,0 0,0
28-07-2020 23,6     29,9     33,2 9,6 43 62 84 1.014 1.015 1.016 ENE 7,3 29,0 0,0
27-07-2020 23,1     26,3     33,5 10,4 41 73 86 1.017 1.018 1.018 ESE 1,0 20,9 0,0
26-07-2020 22,6     27,8     32,9 10,3 54 70 85 1.015 1.016 1.018 ESE 5,1 30,6 0,0
25-07-2020 23,1     28,2     33,2 10,1 38 63 87 1.014 1.016 1.017 E 4,3 25,7 0,0
24-07-2020 22,7     27,4     32,9 10,2 50 69 84 1.014 1.015 1.016 SSE 3,2 24,1 0,0
23-07-2020 22,5     28,4     34,8 12,3 27 55 74 1.015 1.017 1.019 S 3,2 22,5 0,0
22-07-2020 23,0     28,0     32,1 9,1 45 61 80 1.016 1.018 1.021 ESE 5,9 33,8 0,0
21-07-2020 22,2     27,1     31,5 9,3 46 69 85 1.017 1.019 1.020 ESE 5,7 30,6 0,0
20-07-2020 23,1     26,7     31,8 8,7 46 71 86 1.017 1.017 1.019 ENE 4,6 25,7 0,0
19-07-2020 21,3     26,6     32,9 11,6 43 69 87 1.016 1.017 1.018 E 3,4 25,7 0,0
18-07-2020 22,1     26,2     30,7 8,6 50 71 87 1.016 1.017 1.018 ENE 3,6 24,1 0,0
17-07-2020 21,2     25,6     30,6 9,4 48 72 87 1.016 1.018 1.019 E 3,3 22,5 0,0
16-07-2020 20,8     25,8     30,6 9,8 50 68 83 1.018 1.019 1.021 ESE 3,9 24,1 0,0
15-07-2020 21,6     25,8     30,7 9,1 45 70 86 1.016 1.018 1.020 E 3,9 24,1 0,0
14-07-2020 23,1     25,8     29,7 6,6 53 73 82 1.015 1.017 1.020 E 2,8 29,0 1,2
13-07-2020 21,7     27,1     32,3 10,6 46 67 85 1.017 1.019 1.020 SE 4,6 25,7 0,0
12-07-2020 24,6     27,0     30,7 6,1 53 71 83 1.018 1.019 1.021 ESE 6,5 46,7 0,6
11-07-2020 22,4     27,3     33,3 10,9 40 69 90 1.016 1.017 1.019 E 4,7 35,4 0,0
Últims 13 mesos disponibles
07/2020 20,4 22,5 24,6 27,2 27,4 32,5 40,1 19,7 55 68 77 1.013 1.017 1.022 ESE 4,0 46,7 1,8
06/2020 15,9 19,4 23,1 24,5 22,7 29,8 32,9 17,0 39 64 85 1.007 1.016 1.022 E 3,7 40,2 34,0
05/2020 12,9 16,7 19,6 22,1 21,5 27,8 33,8 20,9 50 63 80 1.008 1.018 1.027 ESE 3,5 51,5 28,0
04/2020 9,6 13,1 16,7 17,1 16,9 22,0 28,4 18,8 53 72 85 1.008 1.017 1.027 SE 3,1 33,8 27,8
03/2020 7,7 11,5 16,4 15,7 12,6 20,4 30,6 22,9 36 66 89 1.010 1.018 1.026 SO 4,3 51,5 112,8
02/2020 4,9 10,1 15,9 15,3 16,6 22,1 27,4 22,5 40 70 86 1.017 1.027 1.035 SSO 2,1 56,3 2,4
01/2020 2,6 7,1 14,3 11,6 10,3 17,2 22,9 20,3 60 75 89 1.015 1.027 1.034 SSE 1,7 40,2 63,6
12/2019 5,4 10,5 17,9 14,5 13,0 18,9 25,2 19,8 45 69 87 1.008 1.021 1.034 SO 2,6 53,1 43,4
11/2019 6,8 12,1 20,0 16,1 15,2 20,4 28,4 21,6 40 58 91 1.002 1.013 1.021 SSO 3,7 51,5 10,8
10/2019 11,2 16,2 22,1 21,3 17,4 26,6 34,9 23,7 45 68 90 1.010 1.018 1.024 SSO 2,0 33,8 19,2
09/2019 16,3 20,7 24,2 24,5 22,9 29,4 35,4 19,1 48 74 88 1.012 1.019 1.024 SSE 2,9 51,5 307,6
08/2019 19,8 22,7 25,8 27,3 29,5 33,0 42,7 22,9 36 67 80 1.012 1.017 1.021 ESE 2,4 45,1 32,8
07/2019 21,0 23,1 26,5 28,3 29,6 33,7 38,9 17,9 36 60 73 1.008 1.015 1.021 ESE 4,1 41,8 0,2
Tots els anys disponibles
2019 1,3 14,5 26,5 19,3 13,0 24,8 42,7 41,4 36 64 91 999 1.019 1.034 SSE 2,8 57,9 519,8
Temperatura (°C)
Humitat relativa (%)
Velocitat del vent i ràfega màxima (km/h)
Direcció del vent (°)
Pressió (hPa)
Precipitació (mm)
Nota sobre les dades: s'avisa a l'usuari de la provisionalitat i no oficialitat d'aquestes dades
Logo AVAMET blanc
Web allotjada a Sollutia
Llicència de Creative CommonsLa web d'AVAMET i els seus continguts estan subjectes a una llicència de
Reconeixement - No Comercial - Compartir igual
Últimes estacions: Cirat (Estació pròpia d'AVAMET), Torremocha del Jiloca (Limítrofe/Soci), Orihuela - Arneva (MeteOrihuela), Enguera - Antolí (Soci), Vilamarxant - La Pedrera (Soci), Càlig (Ajuntament Soci), Quesa - Hotel La Rocha (Soci) - - -